sensor_id;sensor_type;location;lat;lon;timestamp;pressure;altitude;pressure_sealevel;temperature;humidity
61361;BME280;47232;47.506;18.936;2023-06-04T06:04:10;98658.20;;;16.61;44.08
61361;BME280;47232;47.506;18.936;2023-06-04T12:00:06;98775.27;;;21.93;40.18
61361;BME280;47232;47.506;18.936;2023-06-04T12:21:37;98772.87;;;21.68;39.79
61361;BME280;47232;47.506;18.936;2023-06-04T12:28:40;98768.36;;;21.84;41.59
61361;BME280;47232;47.506;18.936;2023-06-04T13:41:00;98729.58;;;23.25;39.76
61361;BME280;47232;47.506;18.936;2023-06-04T14:33:04;98710.20;;;22.66;42.91
61361;BME280;47232;47.506;18.936;2023-06-04T14:43:28;98698.27;;;22.51;43.03
61361;BME280;47232;47.506;18.936;2023-06-04T16:47:48;98648.25;;;22.13;41.53
61361;BME280;47232;47.506;18.936;2023-06-04T17:17:44;98636.02;;;21.01;42.68
61361;BME280;47232;47.506;18.936;2023-06-04T18:30:20;98643.84;;;19.93;44.12
61361;BME280;47232;47.506;18.936;2023-06-04T18:32:47;98642.48;;;19.91;44.21
61361;BME280;47232;47.506;18.936;2023-06-04T18:35:14;98641.45;;;19.90;44.06
61361;BME280;47232;47.506;18.936;2023-06-04T18:37:41;98644.06;;;19.87;44.21
61361;BME280;47232;47.506;18.936;2023-06-04T18:40:09;98646.27;;;19.88;44.18
61361;BME280;47232;47.506;18.936;2023-06-04T18:42:37;98646.02;;;19.88;44.06
61361;BME280;47232;47.506;18.936;2023-06-04T18:45:04;98646.17;;;19.88;44.05
61361;BME280;47232;47.506;18.936;2023-06-04T18:47:32;98650.29;;;19.86;43.93
61361;BME280;47232;47.506;18.936;2023-06-04T18:49:59;98653.63;;;19.85;43.77
61361;BME280;47232;47.506;18.936;2023-06-04T18:52:26;98656.46;;;19.86;43.89
61361;BME280;47232;47.506;18.936;2023-06-04T18:54:53;98658.79;;;19.85;44.03
61361;BME280;47232;47.506;18.936;2023-06-04T18:57:21;98658.44;;;19.83;44.04
61361;BME280;47232;47.506;18.936;2023-06-04T18:59:48;98660.92;;;19.82;43.95
61361;BME280;47232;47.506;18.936;2023-06-04T19:02:17;98668.80;;;19.81;43.93
61361;BME280;47232;47.506;18.936;2023-06-04T19:04:44;98667.76;;;19.80;44.17
61361;BME280;47232;47.506;18.936;2023-06-04T19:07:11;98670.23;;;19.78;44.02
61361;BME280;47232;47.506;18.936;2023-06-04T19:09:38;98674.95;;;19.77;44.15
61361;BME280;47232;47.506;18.936;2023-06-04T19:12:03;98676.49;;;19.76;44.34
61361;BME280;47232;47.506;18.936;2023-06-04T19:14:29;98673.97;;;19.74;44.20
61361;BME280;47232;47.506;18.936;2023-06-04T19:16:56;98673.52;;;19.71;44.41
61361;BME280;47232;47.506;18.936;2023-06-04T19:19:21;98673.25;;;19.70;44.34
61361;BME280;47232;47.506;18.936;2023-06-04T19:21:48;98674.86;;;19.67;44.50
61361;BME280;47232;47.506;18.936;2023-06-04T19:24:18;98674.66;;;19.65;44.31
61361;BME280;47232;47.506;18.936;2023-06-04T19:26:45;98672.27;;;19.63;44.25
61361;BME280;47232;47.506;18.936;2023-06-04T19:29:11;98674.80;;;19.60;44.34
61361;BME280;47232;47.506;18.936;2023-06-04T19:31:38;98672.61;;;19.57;44.29
61361;BME280;47232;47.506;18.936;2023-06-04T19:34:08;98674.38;;;19.55;44.34
61361;BME280;47232;47.506;18.936;2023-06-04T19:36:35;98680.11;;;19.53;44.34
61361;BME280;47232;47.506;18.936;2023-06-04T19:39:02;98678.01;;;19.49;44.41
61361;BME280;47232;47.506;18.936;2023-06-04T19:41:28;98675.85;;;19.47;44.49
61361;BME280;47232;47.506;18.936;2023-06-04T19:43:56;98676.10;;;19.44;44.48
61361;BME280;47232;47.506;18.936;2023-06-04T19:46:22;98676.77;;;19.42;44.43
61361;BME280;47232;47.506;18.936;2023-06-04T19:48:50;98678.70;;;19.41;44.55
61361;BME280;47232;47.506;18.936;2023-06-04T19:51:19;98678.01;;;19.37;44.63
61361;BME280;47232;47.506;18.936;2023-06-04T19:53:46;98678.46;;;19.33;44.71
61361;BME280;47232;47.506;18.936;2023-06-04T19:56:12;98678.71;;;19.30;44.84
61361;BME280;47232;47.506;18.936;2023-06-04T19:58:41;98676.61;;;19.26;45.20
61361;BME280;47232;47.506;18.936;2023-06-04T20:01:07;98677.63;;;19.22;45.22
61361;BME280;47232;47.506;18.936;2023-06-04T20:03:33;98677.70;;;19.19;45.36
61361;BME280;47232;47.506;18.936;2023-06-04T20:06:00;98678.48;;;19.15;45.25
61361;BME280;47232;47.506;18.936;2023-06-04T20:08:27;98679.56;;;19.11;45.34
61361;BME280;47232;47.506;18.936;2023-06-04T20:10:57;98677.11;;;19.09;45.46
61361;BME280;47232;47.506;18.936;2023-06-04T20:13:25;98674.17;;;19.06;45.50
61361;BME280;47232;47.506;18.936;2023-06-04T20:15:55;98678.15;;;19.03;45.58
61361;BME280;47232;47.506;18.936;2023-06-04T20:18:22;98676.24;;;19.01;45.65
61361;BME280;47232;47.506;18.936;2023-06-04T20:20:54;98673.81;;;18.97;45.95
61361;BME280;47232;47.506;18.936;2023-06-04T20:23:21;98675.15;;;18.94;46.00
61361;BME280;47232;47.506;18.936;2023-06-04T20:25:47;98672.36;;;18.91;46.05
61361;BME280;47232;47.506;18.936;2023-06-04T20:28:14;98671.77;;;18.89;46.17
61361;BME280;47232;47.506;18.936;2023-06-04T20:30:42;98675.56;;;18.87;46.26
61361;BME280;47232;47.506;18.936;2023-06-04T20:33:09;98673.71;;;18.85;46.34
61361;BME280;47232;47.506;18.936;2023-06-04T20:35:36;98671.97;;;18.83;46.40
61361;BME280;47232;47.506;18.936;2023-06-04T20:38:23;98670.48;;;18.80;46.35
